sensor_id;sensor_type;location;lat;lon;timestamp;P1;durP1;ratioP1;P2;durP2;ratioP2
14760;SDS011;7472;45.396;5.272;2023-06-04T00:01:35;4.25;;;3.22;;
14760;SDS011;7472;45.396;5.272;2023-06-04T00:04:02;4.93;;;3.40;;
14760;SDS011;7472;45.396;5.272;2023-06-04T00:06:30;3.78;;;3.45;;
14760;SDS011;7472;45.396;5.272;2023-06-04T00:08:57;5.20;;;3.53;;
14760;SDS011;7472;45.396;5.272;2023-06-04T00:11:26;4.13;;;3.47;;
14760;SDS011;7472;45.396;5.272;2023-06-04T00:13:53;6.10;;;3.15;;
14760;SDS011;7472;45.396;5.272;2023-06-04T00:16:20;4.55;;;3.33;;
14760;SDS011;7472;45.396;5.272;2023-06-04T00:18:48;4.65;;;2.88;;
14760;SDS011;7472;45.396;5.272;2023-06-04T00:21:15;4.57;;;2.78;;
14760;SDS011;7472;45.396;5.272;2023-06-04T00:23:43;3.67;;;3.38;;
14760;SDS011;7472;45.396;5.272;2023-06-04T00:26:10;4.22;;;3.53;;
14760;SDS011;7472;45.396;5.272;2023-06-04T00:28:39;3.38;;;2.58;;
14760;SDS011;7472;45.396;5.272;2023-06-04T00:31:06;3.85;;;2.60;;
14760;SDS011;7472;45.396;5.272;2023-06-04T00:33:35;4.22;;;3.03;;
14760;SDS011;7472;45.396;5.272;2023-06-04T00:36:02;3.80;;;2.60;;
14760;SDS011;7472;45.396;5.272;2023-06-04T00:38:30;4.22;;;2.83;;
14760;SDS011;7472;45.396;5.272;2023-06-04T00:40:57;2.67;;;2.20;;
14760;SDS011;7472;45.396;5.272;2023-06-04T00:43:25;5.25;;;3.10;;
14760;SDS011;7472;45.396;5.272;2023-06-04T00:45:54;4.40;;;2.90;;
14760;SDS011;7472;45.396;5.272;2023-06-04T00:48:21;4.30;;;2.70;;
14760;SDS011;7472;45.396;5.272;2023-06-04T00:50:48;3.60;;;2.80;;
14760;SDS011;7472;45.396;5.272;2023-06-04T00:53:16;9.32;;;2.78;;
14760;SDS011;7472;45.396;5.272;2023-06-04T00:55:43;3.03;;;2.25;;
14760;SDS011;7472;45.396;5.272;2023-06-04T00:58:11;3.05;;;2.67;;
14760;SDS011;7472;45.396;5.272;2023-06-04T01:00:40;3.78;;;2.47;;
14760;SDS011;7472;45.396;5.272;2023-06-04T01:03:10;3.70;;;2.88;;
14760;SDS011;7472;45.396;5.272;2023-06-04T01:05:40;3.25;;;2.40;;
14760;SDS011;7472;45.396;5.272;2023-06-04T01:08:08;4.40;;;2.70;;
14760;SDS011;7472;45.396;5.272;2023-06-04T01:10:35;5.20;;;2.50;;
14760;SDS011;7472;45.396;5.272;2023-06-04T01:13:03;3.72;;;2.75;;
14760;SDS011;7472;45.396;5.272;2023-06-04T01:15:30;3.97;;;3.20;;
14760;SDS011;7472;45.396;5.272;2023-06-04T01:17:58;3.67;;;2.67;;
14760;SDS011;7472;45.396;5.272;2023-06-04T01:20:31;2.63;;;2.42;;
14760;SDS011;7472;45.396;5.272;2023-06-04T01:23:12;3.15;;;2.75;;
14760;SDS011;7472;45.396;5.272;2023-06-04T01:25:41;3.08;;;2.42;;
14760;SDS011;7472;45.396;5.272;2023-06-04T01:28:11;3.25;;;2.80;;
14760;SDS011;7472;45.396;5.272;2023-06-04T01:30:42;3.75;;;2.20;;
14760;SDS011;7472;45.396;5.272;2023-06-04T01:33:11;6.97;;;2.90;;
14760;SDS011;7472;45.396;5.272;2023-06-04T01:35:40;3.20;;;2.38;;
14760;SDS011;7472;45.396;5.272;2023-06-04T01:38:07;5.97;;;2.70;;
14760;SDS011;7472;45.396;5.272;2023-06-04T01:40:35;3.78;;;2.50;;
14760;SDS011;7472;45.396;5.272;2023-06-04T01:43:02;3.05;;;2.38;;
14760;SDS011;7472;45.396;5.272;2023-06-04T01:45:30;3.47;;;2.50;;
14760;SDS011;7472;45.396;5.272;2023-06-04T01:47:57;2.63;;;2.42;;
14760;SDS011;7472;45.396;5.272;2023-06-04T01:50:24;3.42;;;2.30;;
14760;SDS011;7472;45.396;5.272;2023-06-04T01:52:53;4.53;;;2.72;;
14760;SDS011;7472;45.396;5.272;2023-06-04T01:55:21;5.40;;;2.90;;
14760;SDS011;7472;45.396;5.272;2023-06-04T01:57:50;7.25;;;2.75;;
14760;SDS011;7472;45.396;5.272;2023-06-04T02:00:17;2.63;;;2.42;;
14760;SDS011;7472;45.396;5.272;2023-06-04T02:02:45;4.57;;;2.70;;
14760;SDS011;7472;45.396;5.272;2023-06-04T02:05:13;3.20;;;2.80;;
14760;SDS011;7472;45.396;5.272;2023-06-04T02:07:42;4.55;;;3.17;;
14760;SDS011;7472;45.396;5.272;2023-06-04T02:10:12;3.13;;;2.60;;
14760;SDS011;7472;45.396;5.272;2023-06-04T02:12:39;3.40;;;3.10;;
14760;SDS011;7472;45.396;5.272;2023-06-04T02:15:09;4.45;;;2.70;;
14760;SDS011;7472;45.396;5.272;2023-06-04T02:17:37;3.97;;;2.85;;
14760;SDS011;7472;45.396;5.272;2023-06-04T02:20:05;4.95;;;3.10;;
14760;SDS011;7472;45.396;5.272;2023-06-04T02:22:35;4.90;;;2.38;;
14760;SDS011;7472;45.396;5.272;2023-06-04T02:25:02;2.90;;;2.60;;
14760;SDS011;7472;45.396;5.272;2023-06-04T02:27:31;4.80;;;3.00;;
14760;SDS011;7472;45.396;5.272;2023-06-04T02:29:58;3.10;;;2.63;;
14760;SDS011;7472;45.396;5.272;2023-06-04T02:32:26;4.20;;;2.72;;
14760;SDS011;7472;45.396;5.272;2023-06-04T02:34:54;2.58;;;2.38;;
14760;SDS011;7472;45.396;5.272;2023-06-04T02:37:21;4.32;;;3.00;;
14760;SDS011;7472;45.396;5.272;2023-06-04T02:39:49;3.85;;;2.70;;
14760;SDS011;7472;45.396;5.272;2023-06-04T02:42:16;3.00;;;2.58;;
14760;SDS011;7472;45.396;5.272;2023-06-04T02:44:45;4.80;;;2.70;;
14760;SDS011;7472;45.396;5.272;2023-06-04T02:47:12;2.75;;;2.20;;
14760;SDS011;7472;45.396;5.272;2023-06-04T02:49:40;3.70;;;2.45;;
14760;SDS011;7472;45.396;5.272;2023-06-04T02:52:07;2.60;;;2.40;;
14760;SDS011;7472;45.396;5.272;2023-06-04T02:54:35;4.18;;;2.78;;
14760;SDS011;7472;45.396;5.272;2023-06-04T02:57:03;3.72;;;2.85;;
14760;SDS011;7472;45.396;5.272;2023-06-04T02:59:31;3.67;;;2.67;;
14760;SDS011;7472;45.396;5.272;2023-06-04T03:02:01;5.03;;;2.47;;
14760;SDS011;7472;45.396;5.272;2023-06-04T03:04:29;2.83;;;2.58;;
14760;SDS011;7472;45.396;5.272;2023-06-04T03:07:00;4.65;;;2.70;;
14760;SDS011;7472;45.396;5.272;2023-06-04T03:09:27;4.30;;;2.33;;
14760;SDS011;7472;45.396;5.272;2023-06-04T03:11:57;5.00;;;2.83;;
14760;SDS011;7472;45.396;5.272;2023-06-04T03:14:25;3.20;;;2.58;;
14760;SDS011;7472;45.396;5.272;2023-06-04T03:16:57;3.22;;;2.92;;
14760;SDS011;7472;45.396;5.272;2023-06-04T03:19:34;3.70;;;2.85;;
14760;SDS011;7472;45.396;5.272;2023-06-04T03:22:03;2.78;;;2.58;;
14760;SDS011;7472;45.396;5.272;2023-06-04T03:24:33;4.60;;;2.95;;
14760;SDS011;7472;45.396;5.272;2023-06-04T03:27:02;3.83;;;2.80;;
14760;SDS011;7472;45.396;5.272;2023-06-04T03:29:30;5.70;;;2.72;;
14760;SDS011;7472;45.396;5.272;2023-06-04T03:31:58;8.85;;;2.92;;
14760;SDS011;7472;45.396;5.272;2023-06-04T03:34:26;6.20;;;2.60;;
14760;SDS011;7472;45.396;5.272;2023-06-04T03:36:58;3.78;;;2.90;;
14760;SDS011;7472;45.396;5.272;2023-06-04T03:39:26;7.22;;;3.55;;
14760;SDS011;7472;45.396;5.272;2023-06-04T03:41:54;4.63;;;2.70;;
14760;SDS011;7472;45.396;5.272;2023-06-04T03:44:22;7.93;;;3.15;;
14760;SDS011;7472;45.396;5.272;2023-06-04T03:46:51;4.43;;;2.85;;
14760;SDS011;7472;45.396;5.272;2023-06-04T03:49:19;8.05;;;3.22;;
14760;SDS011;7472;45.396;5.272;2023-06-04T03:51:47;4.50;;;2.80;;
14760;SDS011;7472;45.396;5.272;2023-06-04T03:54:16;4.25;;;2.78;;
14760;SDS011;7472;45.396;5.272;2023-06-04T03:56:44;6.00;;;2.40;;
14760;SDS011;7472;45.396;5.272;2023-06-04T03:59:12;8.15;;;3.30;;
14760;SDS011;7472;45.396;5.272;2023-06-04T04:01:41;6.25;;;3.35;;
14760;SDS011;7472;45.396;5.272;2023-06-04T04:04:09;6.30;;;3.00;;
14760;SDS011;7472;45.396;5.272;2023-06-04T04:06:37;3.95;;;2.42;;
14760;SDS011;7472;45.396;5.272;2023-06-04T04:09:05;3.03;;;2.78;;
14760;SDS011;7472;45.396;5.272;2023-06-04T04:11:34;3.50;;;2.85;;
14760;SDS011;7472;45.396;5.272;2023-06-04T04:14:02;3.88;;;2.67;;
14760;SDS011;7472;45.396;5.272;2023-06-04T04:16:30;5.55;;;3.53;;
14760;SDS011;7472;45.396;5.272;2023-06-04T04:18:59;3.97;;;3.35;;
14760;SDS011;7472;45.396;5.272;2023-06-04T04:21:26;3.50;;;3.20;;
14760;SDS011;7472;45.396;5.272;2023-06-04T04:23:54;4.78;;;3.40;;
14760;SDS011;7472;45.396;5.272;2023-06-04T04:26:22;5.03;;;3.67;;
14760;SDS011;7472;45.396;5.272;2023-06-04T04:28:54;3.70;;;3.35;;
14760;SDS011;7472;45.396;5.272;2023-06-04T04:31:23;5.05;;;3.45;;
14760;SDS011;7472;45.396;5.272;2023-06-04T04:33:51;5.75;;;3.00;;
14760;SDS011;7472;45.396;5.272;2023-06-04T04:36:19;5.38;;;3.28;;
14760;SDS011;7472;45.396;5.272;2023-06-04T04:38:47;7.00;;;3.03;;
14760;SDS011;7472;45.396;5.272;2023-06-04T04:41:19;5.45;;;3.50;;
14760;SDS011;7472;45.396;5.272;2023-06-04T04:43:48;3.47;;;3.00;;
14760;SDS011;7472;45.396;5.272;2023-06-04T04:46:18;5.47;;;3.45;;
14760;SDS011;7472;45.396;5.272;2023-06-04T04:48:45;6.03;;;3.13;;
14760;SDS011;7472;45.396;5.272;2023-06-04T04:51:13;10.55;;;3.42;;
14760;SDS011;7472;45.396;5.272;2023-06-04T04:53:42;5.70;;;2.95;;
14760;SDS011;7472;45.396;5.272;2023-06-04T04:56:09;5.60;;;3.20;;
14760;SDS011;7472;45.396;5.272;2023-06-04T04:58:37;3.78;;;3.17;;
14760;SDS011;7472;45.396;5.272;2023-06-04T05:01:05;3.58;;;3.28;;
14760;SDS011;7472;45.396;5.272;2023-06-04T05:03:34;6.90;;;3.08;;
14760;SDS011;7472;45.396;5.272;2023-06-04T05:06:02;5.82;;;3.13;;
14760;SDS011;7472;45.396;5.272;2023-06-04T05:08:30;4.68;;;3.63;;
14760;SDS011;7472;45.396;5.272;2023-06-04T05:10:58;4.45;;;3.42;;
14760;SDS011;7472;45.396;5.272;2023-06-04T05:13:26;4.65;;;2.80;;
14760;SDS011;7472;45.396;5.272;2023-06-04T05:15:54;6.45;;;2.90;;
14760;SDS011;7472;45.396;5.272;2023-06-04T05:18:23;3.67;;;3.20;;
14760;SDS011;7472;45.396;5.272;2023-06-04T05:20:55;5.38;;;3.50;;
14760;SDS011;7472;45.396;5.272;2023-06-04T05:23:25;3.50;;;3.00;;
14760;SDS011;7472;45.396;5.272;2023-06-04T05:25:53;7.57;;;3.03;;
14760;SDS011;7472;45.396;5.272;2023-06-04T05:28:21;6.82;;;3.63;;
14760;SDS011;7472;45.396;5.272;2023-06-04T05:30:50;5.78;;;3.53;;
14760;SDS011;7472;45.396;5.272;2023-06-04T05:33:18;3.90;;;3.60;;
14760;SDS011;7472;45.396;5.272;2023-06-04T05:35:46;3.22;;;2.92;;
14760;SDS011;7472;45.396;5.272;2023-06-04T05:38:16;3.58;;;2.90;;
14760;SDS011;7472;45.396;5.272;2023-06-04T05:40:45;3.90;;;2.70;;
14760;SDS011;7472;45.396;5.272;2023-06-04T05:43:13;4.63;;;3.72;;
14760;SDS011;7472;45.396;5.272;2023-06-04T05:45:41;3.38;;;3.08;;
14760;SDS011;7472;45.396;5.272;2023-06-04T05:48:08;4.18;;;3.75;;
14760;SDS011;7472;45.396;5.272;2023-06-04T05:50:36;3.38;;;3.10;;
14760;SDS011;7472;45.396;5.272;2023-06-04T05:53:04;3.28;;;2.97;;
14760;SDS011;7472;45.396;5.272;2023-06-04T05:55:33;3.45;;;3.08;;
14760;SDS011;7472;45.396;5.272;2023-06-04T05:58:02;5.40;;;3.28;;
14760;SDS011;7472;45.396;5.272;2023-06-04T06:00:30;2.92;;;2.63;;
14760;SDS011;7472;45.396;5.272;2023-06-04T06:03:00;3.17;;;2.70;;
14760;SDS011;7472;45.396;5.272;2023-06-04T06:05:30;4.10;;;2.95;;
14760;SDS011;7472;45.396;5.272;2023-06-04T06:07:58;4.18;;;3.00;;
14760;SDS011;7472;45.396;5.272;2023-06-04T06:10:27;3.58;;;2.70;;
14760;SDS011;7472;45.396;5.272;2023-06-04T06:12:57;3.55;;;3.25;;
14760;SDS011;7472;45.396;5.272;2023-06-04T06:15:25;3.55;;;3.25;;
14760;SDS011;7472;45.396;5.272;2023-06-04T06:17:53;4.38;;;3.42;;
14760;SDS011;7472;45.396;5.272;2023-06-04T06:20:22;3.95;;;3.08;;
14760;SDS011;7472;45.396;5.272;2023-06-04T06:22:49;3.97;;;2.70;;
14760;SDS011;7472;45.396;5.272;2023-06-04T06:25:17;3.17;;;2.70;;
14760;SDS011;7472;45.396;5.272;2023-06-04T06:27:45;3.58;;;3.00;;
14760;SDS011;7472;45.396;5.272;2023-06-04T06:30:15;3.67;;;2.70;;
14760;SDS011;7472;45.396;5.272;2023-06-04T06:32:43;3.47;;;3.17;;
14760;SDS011;7472;45.396;5.272;2023-06-04T06:35:13;3.50;;;3.20;;
14760;SDS011;7472;45.396;5.272;2023-06-04T06:37:41;3.20;;;2.90;;
14760;SDS011;7472;45.396;5.272;2023-06-04T06:40:09;5.68;;;3.00;;
14760;SDS011;7472;45.396;5.272;2023-06-04T06:42:37;3.45;;;3.17;;
14760;SDS011;7472;45.396;5.272;2023-06-04T06:45:06;3.15;;;2.85;;
14760;SDS011;7472;45.396;5.272;2023-06-04T06:47:35;3.22;;;2.88;;
14760;SDS011;7472;45.396;5.272;2023-06-04T06:50:03;5.72;;;3.53;;
14760;SDS011;7472;45.396;5.272;2023-06-04T06:52:31;3.47;;;2.92;;
14760;SDS011;7472;45.396;5.272;2023-06-04T06:54:59;4.85;;;3.35;;
14760;SDS011;7472;45.396;5.272;2023-06-04T06:57:28;6.38;;;2.88;;
14760;SDS011;7472;45.396;5.272;2023-06-04T06:59:56;4.43;;;3.08;;
14760;SDS011;7472;45.396;5.272;2023-06-04T07:02:24;5.35;;;3.22;;
14760;SDS011;7472;45.396;5.272;2023-06-04T07:04:53;3.70;;;2.88;;
14760;SDS011;7472;45.396;5.272;2023-06-04T07:07:21;3.60;;;3.28;;
14760;SDS011;7472;45.396;5.272;2023-06-04T07:09:49;5.40;;;3.28;;
14760;SDS011;7472;45.396;5.272;2023-06-04T07:12:17;3.60;;;3.30;;
14760;SDS011;7472;45.396;5.272;2023-06-04T07:14:44;3.55;;;3.03;;
14760;SDS011;7472;45.396;5.272;2023-06-04T07:17:12;5.18;;;3.28;;
14760;SDS011;7472;45.396;5.272;2023-06-04T07:19:40;3.65;;;3.10;;
14760;SDS011;7472;45.396;5.272;2023-06-04T07:22:10;4.13;;;3.28;;
14760;SDS011;7472;45.396;5.272;2023-06-04T07:24:38;5.63;;;3.50;;
14760;SDS011;7472;45.396;5.272;2023-06-04T07:27:10;5.10;;;3.45;;
14760;SDS011;7472;45.396;5.272;2023-06-04T07:29:38;4.32;;;3.47;;
14760;SDS011;7472;45.396;5.272;2023-06-04T07:32:05;3.00;;;2.80;;
14760;SDS011;7472;45.396;5.272;2023-06-04T07:34:34;3.90;;;3.25;;
14760;SDS011;7472;45.396;5.272;2023-06-04T07:37:02;4.78;;;3.90;;
14760;SDS011;7472;45.396;5.272;2023-06-04T07:39:32;5.35;;;3.75;;
14760;SDS011;7472;45.396;5.272;2023-06-04T07:41:59;3.30;;;3.00;;
14760;SDS011;7472;45.396;5.272;2023-06-04T07:44:27;5.25;;;3.47;;
14760;SDS011;7472;45.396;5.272;2023-06-04T07:46:55;3.58;;;3.30;;
14760;SDS011;7472;45.396;5.272;2023-06-04T07:49:23;3.97;;;3.45;;
14760;SDS011;7472;45.396;5.272;2023-06-04T07:51:51;3.15;;;2.85;;
14760;SDS011;7472;45.396;5.272;2023-06-04T07:54:18;4.13;;;2.83;;
14760;SDS011;7472;45.396;5.272;2023-06-04T07:56:48;4.72;;;3.63;;
14760;SDS011;7472;45.396;5.272;2023-06-04T07:59:21;3.97;;;3.58;;
14760;SDS011;7472;45.396;5.272;2023-06-04T08:01:49;4.40;;;4.10;;
14760;SDS011;7472;45.396;5.272;2023-06-04T08:04:17;4.45;;;3.88;;
14760;SDS011;7472;45.396;5.272;2023-06-04T08:06:45;5.13;;;3.70;;
14760;SDS011;7472;45.396;5.272;2023-06-04T08:09:13;4.05;;;3.70;;
14760;SDS011;7472;45.396;5.272;2023-06-04T08:11:41;4.43;;;3.95;;
14760;SDS011;7472;45.396;5.272;2023-06-04T08:14:11;5.03;;;3.80;;
14760;SDS011;7472;45.396;5.272;2023-06-04T08:16:39;6.32;;;3.85;;
14760;SDS011;7472;45.396;5.272;2023-06-04T08:19:07;5.78;;;4.50;;
14760;SDS011;7472;45.396;5.272;2023-06-04T08:21:34;5.65;;;4.35;;
14760;SDS011;7472;45.396;5.272;2023-06-04T08:24:02;5.00;;;4.53;;
14760;SDS011;7472;45.396;5.272;2023-06-04T08:26:30;5.85;;;5.20;;
14760;SDS011;7472;45.396;5.272;2023-06-04T08:28:58;8.60;;;5.20;;
14760;SDS011;7472;45.396;5.272;2023-06-04T08:31:27;5.60;;;5.05;;
14760;SDS011;7472;45.396;5.272;2023-06-04T08:33:55;5.55;;;5.05;;
14760;SDS011;7472;45.396;5.272;2023-06-04T08:36:23;7.13;;;4.82;;
14760;SDS011;7472;45.396;5.272;2023-06-04T08:38:51;6.35;;;5.75;;
14760;SDS011;7472;45.396;5.272;2023-06-04T08:41:23;6.28;;;5.55;;
14760;SDS011;7472;45.396;5.272;2023-06-04T08:43:53;5.35;;;4.85;;
14760;SDS011;7472;45.396;5.272;2023-06-04T08:46:23;5.68;;;4.65;;
14760;SDS011;7472;45.396;5.272;2023-06-04T08:48:52;5.57;;;5.18;;
14760;SDS011;7472;45.396;5.272;2023-06-04T08:51:21;5.85;;;5.35;;
14760;SDS011;7472;45.396;5.272;2023-06-04T08:53:49;7.55;;;5.75;;
14760;SDS011;7472;45.396;5.272;2023-06-04T08:56:19;6.45;;;5.60;;
14760;SDS011;7472;45.396;5.272;2023-06-04T08:58:47;6.75;;;5.60;;
14760;SDS011;7472;45.396;5.272;2023-06-04T09:01:15;5.97;;;5.38;;
14760;SDS011;7472;45.396;5.272;2023-06-04T09:03:43;5.70;;;5.20;;
14760;SDS011;7472;45.396;5.272;2023-06-04T09:06:13;5.82;;;5.28;;
14760;SDS011;7472;45.396;5.272;2023-06-04T09:08:41;7.63;;;5.80;;
14760;SDS011;7472;45.396;5.272;2023-06-04T09:11:11;6.40;;;5.80;;
14760;SDS011;7472;45.396;5.272;2023-06-04T09:13:40;6.80;;;6.10;;
14760;SDS011;7472;45.396;5.272;2023-06-04T09:16:10;6.55;;;5.93;;
14760;SDS011;7472;45.396;5.272;2023-06-04T09:18:38;6.03;;;5.15;;
14760;SDS011;7472;45.396;5.272;2023-06-04T09:21:06;7.78;;;5.95;;
14760;SDS011;7472;45.396;5.272;2023-06-04T09:23:36;6.60;;;6.00;;
14760;SDS011;7472;45.396;5.272;2023-06-04T09:26:07;9.15;;;6.40;;
14760;SDS011;7472;45.396;5.272;2023-06-04T09:28:35;6.97;;;6.38;;
14760;SDS011;7472;45.396;5.272;2023-06-04T09:31:03;7.20;;;6.35;;
14760;SDS011;7472;45.396;5.272;2023-06-04T09:33:30;6.95;;;6.00;;
14760;SDS011;7472;45.396;5.272;2023-06-04T09:36:09;6.60;;;6.00;;
14760;SDS011;7472;45.396;5.272;2023-06-04T09:38:38;7.90;;;6.70;;
14760;SDS011;7472;45.396;5.272;2023-06-04T09:41:10;6.82;;;6.13;;
14760;SDS011;7472;45.396;5.272;2023-06-04T09:43:38;6.88;;;6.28;;
14760;SDS011;7472;45.396;5.272;2023-06-04T09:46:10;6.65;;;5.95;;
14760;SDS011;7472;45.396;5.272;2023-06-04T09:48:37;6.20;;;5.60;;
14760;SDS011;7472;45.396;5.272;2023-06-04T09:51:09;6.57;;;5.97;;
14760;SDS011;7472;45.396;5.272;2023-06-04T09:53:38;6.95;;;6.35;;
14760;SDS011;7472;45.396;5.272;2023-06-04T09:56:06;6.75;;;5.93;;
14760;SDS011;7472;45.396;5.272;2023-06-04T09:58:37;7.10;;;5.75;;
14760;SDS011;7472;45.396;5.272;2023-06-04T10:01:06;7.85;;;6.15;;
14760;SDS011;7472;45.396;5.272;2023-06-04T10:03:34;6.65;;;6.07;;
14760;SDS011;7472;45.396;5.272;2023-06-04T10:06:02;7.53;;;6.82;;
14760;SDS011;7472;45.396;5.272;2023-06-04T10:08:31;8.10;;;6.63;;
14760;SDS011;7472;45.396;5.272;2023-06-04T10:11:01;6.55;;;5.95;;
14760;SDS011;7472;45.396;5.272;2023-06-04T10:13:31;6.45;;;5.85;;
14760;SDS011;7472;45.396;5.272;2023-06-04T10:16:02;6.03;;;5.30;;
14760;SDS011;7472;45.396;5.272;2023-06-04T10:18:30;6.15;;;5.55;;
14760;SDS011;7472;45.396;5.272;2023-06-04T10:20:59;5.60;;;5.20;;
14760;SDS011;7472;45.396;5.272;2023-06-04T10:23:26;5.60;;;5.10;;
14760;SDS011;7472;45.396;5.272;2023-06-04T10:25:55;6.03;;;5.45;;
14760;SDS011;7472;45.396;5.272;2023-06-04T10:28:25;7.50;;;4.85;;
14760;SDS011;7472;45.396;5.272;2023-06-04T10:30:53;5.82;;;5.07;;
14760;SDS011;7472;45.396;5.272;2023-06-04T10:33:21;5.90;;;5.40;;
14760;SDS011;7472;45.396;5.272;2023-06-04T10:35:50;5.28;;;4.85;;
14760;SDS011;7472;45.396;5.272;2023-06-04T10:38:18;6.40;;;5.85;;
14760;SDS011;7472;45.396;5.272;2023-06-04T10:40:47;5.13;;;4.63;;
14760;SDS011;7472;45.396;5.272;2023-06-04T10:43:15;6.20;;;5.60;;
14760;SDS011;7472;45.396;5.272;2023-06-04T10:45:44;5.78;;;5.18;;
14760;SDS011;7472;45.396;5.272;2023-06-04T10:48:12;4.97;;;4.57;;
14760;SDS011;7472;45.396;5.272;2023-06-04T10:50:49;4.63;;;4.30;;
14760;SDS011;7472;45.396;5.272;2023-06-04T10:53:17;4.88;;;4.47;;
14760;SDS011;7472;45.396;5.272;2023-06-04T10:55:45;5.75;;;5.20;;
14760;SDS011;7472;45.396;5.272;2023-06-04T10:58:13;4.93;;;4.35;;
14760;SDS011;7472;45.396;5.272;2023-06-04T11:00:41;5.45;;;4.60;;
14760;SDS011;7472;45.396;5.272;2023-06-04T11:03:12;5.70;;;5.18;;
14760;SDS011;7472;45.396;5.272;2023-06-04T11:05:40;5.10;;;4.63;;
14760;SDS011;7472;45.396;5.272;2023-06-04T11:08:08;4.75;;;4.35;;
14760;SDS011;7472;45.396;5.272;2023-06-04T11:10:36;7.70;;;7.00;;
14760;SDS011;7472;45.396;5.272;2023-06-04T11:13:04;9.32;;;7.75;;
14760;SDS011;7472;45.396;5.272;2023-06-04T11:15:38;7.85;;;6.53;;
14760;SDS011;7472;45.396;5.272;2023-06-04T11:18:06;8.00;;;5.72;;
14760;SDS011;7472;45.396;5.272;2023-06-04T11:20:35;4.82;;;4.47;;
14760;SDS011;7472;45.396;5.272;2023-06-04T11:23:02;7.07;;;6.47;;
14760;SDS011;7472;45.396;5.272;2023-06-04T11:25:31;5.00;;;4.55;;
14760;SDS011;7472;45.396;5.272;2023-06-04T11:28:00;5.18;;;4.78;;
14760;SDS011;7472;45.396;5.272;2023-06-04T11:30:28;5.07;;;4.68;;
14760;SDS011;7472;45.396;5.272;2023-06-04T11:33:02;5.07;;;4.65;;
14760;SDS011;7472;45.396;5.272;2023-06-04T11:35:29;4.93;;;4.53;;
14760;SDS011;7472;45.396;5.272;2023-06-04T11:37:58;5.00;;;4.50;;
14760;SDS011;7472;45.396;5.272;2023-06-04T11:40:26;6.10;;;5.13;;
14760;SDS011;7472;45.396;5.272;2023-06-04T11:42:53;5.53;;;5.03;;
14760;SDS011;7472;45.396;5.272;2023-06-04T11:45:22;5.35;;;4.93;;
14760;SDS011;7472;45.396;5.272;2023-06-04T11:47:52;5.70;;;4.68;;
14760;SDS011;7472;45.396;5.272;2023-06-04T11:50:20;5.78;;;5.28;;
14760;SDS011;7472;45.396;5.272;2023-06-04T11:52:48;5.55;;;4.65;;
14760;SDS011;7472;45.396;5.272;2023-06-04T11:55:17;5.38;;;4.90;;
14760;SDS011;7472;45.396;5.272;2023-06-04T11:57:45;5.82;;;4.70;;
14760;SDS011;7472;45.396;5.272;2023-06-04T12:00:14;4.13;;;3.83;;
14760;SDS011;7472;45.396;5.272;2023-06-04T12:02:47;4.18;;;3.78;;
14760;SDS011;7472;45.396;5.272;2023-06-04T12:05:15;4.50;;;4.10;;
14760;SDS011;7472;45.396;5.272;2023-06-04T12:07:44;5.40;;;4.70;;
14760;SDS011;7472;45.396;5.272;2023-06-04T12:10:12;5.50;;;3.90;;
14760;SDS011;7472;45.396;5.272;2023-06-04T12:12:41;5.03;;;4.63;;
14760;SDS011;7472;45.396;5.272;2023-06-04T12:15:09;5.57;;;5.07;;
14760;SDS011;7472;45.396;5.272;2023-06-04T12:17:37;5.53;;;5.03;;
14760;SDS011;7472;45.396;5.272;2023-06-04T12:20:05;5.30;;;4.80;;
14760;SDS011;7472;45.396;5.272;2023-06-04T12:22:33;6.70;;;5.75;;
14760;SDS011;7472;45.396;5.272;2023-06-04T12:25:00;5.50;;;5.10;;
14760;SDS011;7472;45.396;5.272;2023-06-04T12:27:29;7.95;;;6.07;;
14760;SDS011;7472;45.396;5.272;2023-06-04T12:30:01;7.45;;;5.65;;
14760;SDS011;7472;45.396;5.272;2023-06-04T12:32:29;7.32;;;6.07;;
14760;SDS011;7472;45.396;5.272;2023-06-04T12:34:56;7.30;;;5.90;;
14760;SDS011;7472;45.396;5.272;2023-06-04T12:37:24;7.93;;;5.63;;
14760;SDS011;7472;45.396;5.272;2023-06-04T12:39:52;7.95;;;5.63;;
14760;SDS011;7472;45.396;5.272;2023-06-04T12:42:20;6.82;;;5.57;;
14760;SDS011;7472;45.396;5.272;2023-06-04T12:44:47;8.80;;;6.18;;
14760;SDS011;7472;45.396;5.272;2023-06-04T12:47:16;6.32;;;5.75;;
14760;SDS011;7472;45.396;5.272;2023-06-04T12:49:45;6.15;;;5.55;;
14760;SDS011;7472;45.396;5.272;2023-06-04T12:52:12;6.75;;;5.38;;
14760;SDS011;7472;45.396;5.272;2023-06-04T12:54:40;6.40;;;5.75;;
14760;SDS011;7472;45.396;5.272;2023-06-04T12:57:07;7.07;;;6.47;;
14760;SDS011;7472;45.396;5.272;2023-06-04T12:59:35;6.22;;;5.57;;
14760;SDS011;7472;45.396;5.272;2023-06-04T13:02:02;6.30;;;5.70;;
14760;SDS011;7472;45.396;5.272;2023-06-04T13:04:31;6.97;;;6.00;;
14760;SDS011;7472;45.396;5.272;2023-06-04T13:06:58;6.57;;;5.97;;
14760;SDS011;7472;45.396;5.272;2023-06-04T13:09:26;8.07;;;6.13;;
14760;SDS011;7472;45.396;5.272;2023-06-04T13:11:54;7.45;;;4.97;;
14760;SDS011;7472;45.396;5.272;2023-06-04T13:14:21;6.20;;;5.60;;
14760;SDS011;7472;45.396;5.272;2023-06-04T13:16:49;6.38;;;5.75;;
14760;SDS011;7472;45.396;5.272;2023-06-04T13:19:16;7.53;;;6.00;;
14760;SDS011;7472;45.396;5.272;2023-06-04T13:21:47;6.43;;;5.90;;
14760;SDS011;7472;45.396;5.272;2023-06-04T13:24:14;6.63;;;6.03;;
14760;SDS011;7472;45.396;5.272;2023-06-04T13:26:41;6.40;;;5.80;;
14760;SDS011;7472;45.396;5.272;2023-06-04T13:29:09;6.38;;;5.78;;
14760;SDS011;7472;45.396;5.272;2023-06-04T13:31:37;6.70;;;6.10;;
14760;SDS011;7472;45.396;5.272;2023-06-04T13:34:05;5.50;;;5.00;;
14760;SDS011;7472;45.396;5.272;2023-06-04T13:36:33;6.47;;;5.82;;
14760;SDS011;7472;45.396;5.272;2023-06-04T13:39:02;7.22;;;5.03;;
14760;SDS011;7472;45.396;5.272;2023-06-04T13:41:29;5.18;;;4.53;;
14760;SDS011;7472;45.396;5.272;2023-06-04T13:43:56;5.75;;;5.20;;
14760;SDS011;7472;45.396;5.272;2023-06-04T13:46:24;6.13;;;4.97;;
14760;SDS011;7472;45.396;5.272;2023-06-04T13:48:51;5.85;;;5.03;;
14760;SDS011;7472;45.396;5.272;2023-06-04T13:51:18;4.95;;;4.13;;
14760;SDS011;7472;45.396;5.272;2023-06-04T13:53:46;4.93;;;4.45;;
14760;SDS011;7472;45.396;5.272;2023-06-04T13:56:15;3.65;;;3.35;;
14760;SDS011;7472;45.396;5.272;2023-06-04T13:58:42;4.43;;;4.03;;
14760;SDS011;7472;45.396;5.272;2023-06-04T14:01:10;4.07;;;3.70;;
14760;SDS011;7472;45.396;5.272;2023-06-04T14:03:37;4.72;;;4.32;;
14760;SDS011;7472;45.396;5.272;2023-06-04T14:06:05;6.53;;;4.72;;
14760;SDS011;7472;45.396;5.272;2023-06-04T14:08:32;6.05;;;5.45;;
14760;SDS011;7472;45.396;5.272;2023-06-04T14:11:02;5.60;;;4.70;;
14760;SDS011;7472;45.396;5.272;2023-06-04T14:13:31;5.22;;;4.72;;
14760;SDS011;7472;45.396;5.272;2023-06-04T14:15:58;4.80;;;4.15;;
14760;SDS011;7472;45.396;5.272;2023-06-04T14:18:25;4.90;;;4.50;;
14760;SDS011;7472;45.396;5.272;2023-06-04T14:20:53;4.72;;;4.32;;
14760;SDS011;7472;45.396;5.272;2023-06-04T14:23:20;4.43;;;4.13;;
14760;SDS011;7472;45.396;5.272;2023-06-04T14:25:48;4.53;;;4.13;;
14760;SDS011;7472;45.396;5.272;2023-06-04T14:28:15;4.30;;;3.90;;
14760;SDS011;7472;45.396;5.272;2023-06-04T14:30:47;4.85;;;3.83;;
14760;SDS011;7472;45.396;5.272;2023-06-04T14:33:14;4.47;;;4.07;;
14760;SDS011;7472;45.396;5.272;2023-06-04T14:35:42;3.58;;;3.28;;
14760;SDS011;7472;45.396;5.272;2023-06-04T14:38:12;4.88;;;4.38;;
14760;SDS011;7472;45.396;5.272;2023-06-04T14:40:41;4.43;;;4.05;;
14760;SDS011;7472;45.396;5.272;2023-06-04T14:43:09;5.70;;;4.05;;
14760;SDS011;7472;45.396;5.272;2023-06-04T14:45:36;3.95;;;3.65;;
14760;SDS011;7472;45.396;5.272;2023-06-04T14:48:06;4.10;;;3.80;;
14760;SDS011;7472;45.396;5.272;2023-06-04T14:50:34;4.43;;;3.85;;
14760;SDS011;7472;45.396;5.272;2023-06-04T14:53:01;4.28;;;3.97;;
14760;SDS011;7472;45.396;5.272;2023-06-04T14:55:32;4.43;;;4.03;;
14760;SDS011;7472;45.396;5.272;2023-06-04T14:57:59;4.85;;;4.45;;
14760;SDS011;7472;45.396;5.272;2023-06-04T15:00:28;4.22;;;3.80;;
14760;SDS011;7472;45.396;5.272;2023-06-04T15:02:55;7.28;;;4.05;;
14760;SDS011;7472;45.396;5.272;2023-06-04T15:05:24;5.20;;;4.00;;
14760;SDS011;7472;45.396;5.272;2023-06-04T15:07:51;6.65;;;4.35;;